Time;durP1;ratioP1;P1;durP2;ratioP2;P2;SDS_P1;SDS_P2;PMS_P1;PMS_P2;Temp;Humidity;BMP_temperature;BMP_pressure;BME280_temperature;BME280_humidity;BME280_pressure;Samples;Min_cycle;Max_cycle;Signal;HPM_P1;HPM_P2
2022/12/17 13:08:06;;;;;;;69.95;34.08;;;;;;;-1.51;100.00;102623.59;5141449;27;20100;-84
2022/12/17 13:10:33;;;;;;;70.03;32.13;;;;;;;-1.55;99.43;102635.53;5135321;27;20389;-84
2022/12/17 13:13:35;;;;;;;76.45;33.83;;;;;;;-1.64;99.61;102637.59;5118931;27;20037;-84
2022/12/17 13:16:19;;;;;;;71.55;33.75;;;;;;;-1.66;100.00;102638.31;5142068;27;20045;-84
2022/12/17 13:18:45;;;;;;;67.40;31.35;;;;;;;-1.61;100.00;102631.66;5143604;27;20031;-84
2022/12/17 13:21:13;;;;;;;67.70;31.65;;;;;;;-1.60;100.00;102636.97;5144408;27;20479;-83
2022/12/17 13:23:39;;;;;;;65.47;31.98;;;;;;;-1.64;100.00;102628.91;5136883;27;20406;-84
2022/12/17 13:26:11;;;;;;;99.47;42.13;;;;;;;-1.61;100.00;102631.66;5138058;27;20027;-84
2022/12/17 13:28:37;;;;;;;100.95;47.60;;;;;;;-1.63;100.00;102628.09;5131455;27;20110;-84
2022/12/17 13:31:12;;;;;;;84.53;40.05;;;;;;;-1.68;99.48;102625.25;5120428;27;20095;-84
2022/12/17 13:33:56;;;;;;;76.45;33.70;;;;;;;-1.63;100.00;102625.50;5150263;27;20037;-84
2022/12/17 13:36:51;;;;;;;70.20;33.58;;;;;;;-1.59;100.00;102635.25;5129704;27;20114;-84
2022/12/17 13:39:29;;;;;;;77.53;35.22;;;;;;;-1.64;100.00;102632.41;5118575;27;20035;-84
2022/12/17 13:41:55;;;;;;;79.30;31.17;;;;;;;-1.70;100.00;102625.97;5137036;27;20035;-83
2022/12/17 13:44:37;;;;;;;74.88;32.20;;;;;;;-1.74;100.00;102630.09;5156674;27;20027;-84
2022/12/17 13:47:03;;;;;;;76.43;33.97;;;;;;;-1.75;100.00;102628.31;5139290;27;20447;-84
2022/12/17 13:49:30;;;;;;;76.05;33.15;;;;;;;-1.78;99.67;102628.09;5117971;27;20134;-84
2022/12/17 13:52:15;;;;;;;80.95;33.72;;;;;;;-1.78;100.00;102638.50;5138803;27;20028;-83
2022/12/17 13:54:41;;;;;;;79.10;34.97;;;;;;;-1.78;100.00;102626.44;5114440;27;20401;-84
2022/12/17 13:57:24;;;;;;;92.97;39.92;;;;;;;-1.74;100.00;102623.19;5138883;27;20026;-84
2022/12/17 13:59:58;;;;;;;89.70;35.40;;;;;;;-1.73;100.00;102626.69;5152162;27;20027;-83
2022/12/17 14:02:31;;;;;;;76.97;34.22;;;;;;;-1.73;100.00;102635.38;5152436;27;20031;-83
2022/12/17 14:04:59;;;;;;;76.22;33.38;;;;;;;-1.78;99.85;102629.03;5134738;27;20045;-84
2022/12/17 14:07:27;;;;;;;77.00;33.42;;;;;;;-1.80;100.00;102628.03;5118206;27;20374;-84
2022/12/17 14:09:54;;;;;;;82.72;37.80;;;;;;;-1.80;100.00;102628.03;5116599;27;20432;-84
2022/12/17 14:12:24;;;;;;;82.88;37.45;;;;;;;-1.76;100.00;102634.28;5108820;27;20019;-84
2022/12/17 14:14:56;;;;;;;96.35;43.67;;;;;;;-1.79;99.86;102631.53;5145511;27;20039;-84
2022/12/17 14:17:34;;;;;;;83.40;36.30;;;;;;;-1.78;100.00;102638.50;5127845;27;20026;-84
2022/12/17 14:20:10;;;;;;;77.43;34.67;;;;;;;-1.80;100.00;102640.16;5120039;27;20035;-84
2022/12/17 14:22:39;;;;;;;80.28;33.65;;;;;;;-1.81;100.00;102640.94;5135811;27;20043;-84
2022/12/17 14:25:17;;;;;;;87.40;35.70;;;;;;;-1.86;99.75;102639.78;5135668;27;20107;-84
2022/12/17 14:27:55;;;;;;;77.65;33.75;;;;;;;-1.89;100.00;102644.78;5117045;27;20038;-84
2022/12/17 14:30:42;;;;;;;80.35;33.83;;;;;;;-1.91;100.00;102647.28;5116707;27;20297;-84
2022/12/17 14:33:43;;;;;;;85.97;35.70;;;;;;;-1.94;100.00;102649.72;5109663;27;20034;-84
2022/12/17 14:36:15;;;;;;;77.97;31.77;;;;;;;-1.95;99.74;102650.53;5148851;27;20523;-83
2022/12/17 14:38:59;;;;;;;100.38;45.88;;;;;;;-2.04;99.55;102645.69;5134936;27;20381;-84
2022/12/17 14:44:23;;;;;;;65.82;29.35;;;;;;;-2.09;100.00;102654.91;5117977;27;20077;-84
2022/12/17 14:46:49;;;;;;;79.05;34.38;;;;;;;-2.14;99.87;102656.34;5128189;27;20278;-83
2022/12/17 14:49:19;;;;;;;78.85;33.15;;;;;;;-2.17;100.00;102654.47;5149273;27;20038;-82
2022/12/17 14:51:46;;;;;;;86.27;35.57;;;;;;;-2.14;100.00;102658.06;5127392;27;20019;-83
2022/12/17 14:54:28;;;;;;;83.55;34.85;;;;;;;-2.23;100.00;102654.09;5146060;27;20847;-83
2022/12/17 14:56:56;;;;;;;72.68;29.17;;;;;;;-2.28;100.00;102654.63;5123251;27;20397;-83
2022/12/17 14:59:36;;;;;;;83.07;33.35;;;;;;;-2.27;100.00;102665.09;5122093;27;20078;-83
2022/12/17 15:02:09;;;;;;;80.80;33.78;;;;;;;-2.27;100.00;102662.50;5123716;27;20096;-84
2022/12/17 15:04:38;;;;;;;87.97;31.77;;;;;;;-2.31;99.70;102664.81;5130682;27;20033;-84
2022/12/17 15:07:05;;;;;;;102.20;31.58;;;;;;;-2.36;100.00;102676.63;5150289;27;20359;-83
2022/12/17 15:09:35;;;;;;;75.93;32.47;;;;;;;-2.43;100.00;102664.97;5128030;27;20035;-83
2022/12/17 15:12:01;;;;;;;72.38;34.05;;;;;;;-2.41;100.00;102677.25;5129252;27;20027;-83
2022/12/17 15:14:26;;;;;;;83.78;34.58;;;;;;;-2.41;100.00;102669.47;5134835;27;20094;-83
2022/12/17 15:16:51;;;;;;;87.53;37.30;;;;;;;-2.43;100.00;102675.34;5135853;27;20034;-82
2022/12/17 15:19:17;;;;;;;85.53;36.25;;;;;;;-2.46;100.00;102694.22;5109283;27;20026;-83
2022/12/17 15:21:42;;;;;;;76.90;33.45;;;;;;;-2.48;100.00;102682.84;5116353;27;20070;-83
2022/12/17 15:24:15;;;;;;;84.57;34.05;;;;;;;-2.44;100.00;102696.94;5146782;27;20421;-83
2022/12/17 15:26:41;;;;;;;74.03;33.13;;;;;;;-2.45;100.00;102692.53;5106717;27;20026;-83
2022/12/17 15:29:06;;;;;;;85.38;34.83;;;;;;;-2.43;100.00;102696.13;5102910;27;20057;-83
2022/12/17 15:31:32;;;;;;;83.20;35.53;;;;;;;-2.44;100.00;102699.53;5117575;27;20059;-83
2022/12/17 15:33:57;;;;;;;73.97;30.77;;;;;;;-2.48;100.00;102706.22;5135729;27;20114;-83
2022/12/17 15:36:22;;;;;;;84.53;33.55;;;;;;;-2.51;100.00;102710.31;5131637;27;20035;-83
2022/12/17 15:38:48;;;;;;;85.47;32.75;;;;;;;-2.49;100.00;102713.91;5133151;27;20122;-83
2022/12/17 15:43:58;;;;;;;77.90;33.10;;;;;;;-2.54;100.00;102707.56;5116118;27;20067;-83
2022/12/17 15:46:23;;;;;;;71.45;29.92;;;;;;;-2.51;100.00;102705.13;5117311;27;20147;-83
2022/12/17 15:48:49;;;;;;;81.25;33.97;;;;;;;-2.51;100.00;102702.53;5122063;27;20091;-83
2022/12/17 15:51:14;;;;;;;73.95;30.45;;;;;;;-2.50;100.00;102712.09;5103122;27;20074;-83
2022/12/17 15:53:40;;;;;;;74.40;30.40;;;;;;;-2.52;100.00;102703.31;5136270;27;20042;-83
2022/12/17 15:56:06;;;;;;;75.70;30.75;;;;;;;-2.60;100.00;102715.81;5119584;27;20046;-83
2022/12/17 15:58:31;;;;;;;73.88;30.90;;;;;;;-2.67;100.00;102716.25;5121095;27;20027;-82
2022/12/17 16:00:57;;;;;;;77.95;31.17;;;;;;;-2.70;100.00;102716.94;5118604;27;20042;-82
2022/12/17 16:03:23;;;;;;;81.65;31.75;;;;;;;-2.76;100.00;102714.00;5122386;27;20059;-82
2022/12/17 16:05:48;;;;;;;76.75;29.42;;;;;;;-2.76;100.00;102716.59;5136271;27;20066;-82
2022/12/17 16:08:14;;;;;;;75.30;30.40;;;;;;;-2.76;100.00;102716.59;5100380;27;20126;-83
2022/12/17 16:10:39;;;;;;;86.13;32.58;;;;;;;-2.76;100.00;102724.38;5119550;27;20114;-82
2022/12/17 16:13:05;;;;;;;74.18;30.45;;;;;;;-2.70;100.00;102729.03;5107370;27;20481;-82
2022/12/17 16:15:30;;;;;;;79.32;32.55;;;;;;;-2.70;100.00;102729.03;5097753;27;20046;-83
2022/12/17 16:17:56;;;;;;;71.03;28.85;;;;;;;-2.69;100.00;102731.72;5113849;27;20031;-84
2022/12/17 16:20:22;;;;;;;82.32;34.80;;;;;;;-2.71;100.00;102728.13;5113335;27;20370;-83
2022/12/17 16:22:49;;;;;;;78.40;30.38;;;;;;;-2.75;100.00;102717.47;5119748;27;20015;-83
2022/12/17 16:25:14;;;;;;;82.20;32.25;;;;;;;-2.80;100.00;102717.19;5137416;27;20080;-83
2022/12/17 16:27:40;;;;;;;79.95;31.77;;;;;;;-2.83;100.00;102727.38;5122275;27;20031;-83
2022/12/17 16:30:06;;;;;;;89.63;31.75;;;;;;;-2.85;100.00;102724.66;5119971;27;20122;-83
2022/12/17 16:32:32;;;;;;;78.45;31.33;;;;;;;-2.87;100.00;102727.97;5120150;27;20435;-83
2022/12/17 16:34:58;;;;;;;87.60;33.35;;;;;;;-2.93;100.00;102735.38;5138418;27;20031;-83
2022/12/17 16:37:23;;;;;;;86.75;33.33;;;;;;;-3.00;100.00;102741.84;5137918;27;20027;-83
2022/12/17 16:39:49;;;;;;;80.93;32.30;;;;;;;-3.04;100.00;102737.28;5104849;27;20394;-83
2022/12/17 16:42:15;;;;;;;81.07;30.48;;;;;;;-3.09;100.00;102726.63;5140174;27;20059;-82
2022/12/17 16:44:40;;;;;;;85.75;32.88;;;;;;;-3.09;100.00;102731.81;5118011;27;20031;-82
2022/12/17 16:47:06;;;;;;;92.13;32.75;;;;;;;-3.13;100.00;102732.41;5120651;27;20051;-82
2022/12/17 16:49:32;;;;;;;96.82;34.22;;;;;;;-3.17;100.00;102733.00;5121502;27;20997;-83
2022/12/17 16:51:58;;;;;;;84.28;31.05;;;;;;;-3.16;100.00;102724.44;5121654;27;20091;-82
2022/12/17 16:54:26;;;;;;;81.70;31.08;;;;;;;-3.18;100.00;102726.03;5118462;27;20035;-83
2022/12/17 16:56:52;;;;;;;77.80;30.02;;;;;;;-3.20;100.00;102738.00;5129432;27;20067;-82
2022/12/17 16:59:18;;;;;;;78.65;30.48;;;;;;;-3.25;100.00;102750.63;5135401;27;20102;-82
2022/12/17 17:01:46;;;;;;;75.88;28.88;;;;;;;-3.29;100.00;102743.50;5120363;27;20443;-82
2022/12/17 17:04:14;;;;;;;91.63;34.17;;;;;;;-3.31;100.00;102744.19;5134785;27;20042;-82
2022/12/17 17:06:48;;;;;;;85.05;34.38;;;;;;;-3.30;100.00;102733.00;5136838;27;20481;-82
2022/12/17 17:09:16;;;;;;;83.13;31.73;;;;;;;-3.33;100.00;102738.91;5137325;27;20033;-82
2022/12/17 17:11:42;;;;;;;82.60;30.58;;;;;;;-3.36;100.00;102741.28;5117070;27;20011;-82
2022/12/17 17:14:08;;;;;;;76.28;28.98;;;;;;;-3.41;100.00;102734.91;5143036;27;20494;-82
2022/12/17 17:16:34;;;;;;;87.82;30.67;;;;;;;-3.39;100.00;102742.78;5136918;27;20430;-82
2022/12/17 17:19:00;;;;;;;85.72;32.05;;;;;;;-3.38;100.00;102742.00;5136361;27;20039;-82
2022/12/17 17:21:39;;;;;;;87.85;29.80;;;;;;;-3.34;100.00;102741.38;5110456;27;20043;-82
2022/12/17 17:24:16;;;;;;;80.68;30.17;;;;;;;-3.35;100.00;102743.06;5119168;27;20424;-82
2022/12/17 17:26:42;;;;;;;82.20;31.75;;;;;;;-3.36;100.00;102736.13;5118254;27;20027;-82
2022/12/17 17:29:08;;;;;;;88.57;31.30;;;;;;;-3.33;100.00;102746.66;5114412;27;20094;-82
2022/12/17 17:31:35;;;;;;;82.43;31.73;;;;;;;-3.32;100.00;102742.38;5158200;27;20030;-81
2022/12/17 17:34:01;;;;;;;89.47;35.35;;;;;;;-3.36;100.00;102743.88;5156864;27;20039;-82
2022/12/17 17:36:29;;;;;;;73.78;26.15;;;;;;;-3.38;100.00;102753.25;5141475;27;20011;-82
2022/12/17 17:38:56;;;;;;;81.55;30.10;;;;;;;-3.38;100.00;102760.13;5147943;27;20035;-82
2022/12/17 17:41:24;;;;;;;68.10;27.05;;;;;;;-3.40;100.00;102760.00;5100335;27;20475;-76
2022/12/17 17:43:58;;;;;;;83.75;33.45;;;;;;;-3.43;100.00;102765.00;5091632;27;20039;-77
2022/12/17 17:46:25;;;;;;;96.90;33.38;;;;;;;-3.46;100.00;102770.88;5127442;27;20051;-77
2022/12/17 17:48:51;;;;;;;84.47;31.65;;;;;;;-3.48;100.00;102763.81;5132942;27;20034;-77
2022/12/17 17:51:23;;;;;;;91.25;32.90;;;;;;;-3.44;100.00;102770.06;5122517;27;20031;-76
2022/12/17 17:53:50;;;;;;;93.47;35.55;;;;;;;-3.43;100.00;102770.19;5145966;27;20039;-76
2022/12/17 17:56:28;;;;;;;83.50;30.40;;;;;;;-3.43;100.00;102756.34;5145110;27;20102;-77
2022/12/17 17:58:57;;;;;;;88.32;31.83;;;;;;;-3.41;100.00;102768.59;5116877;27;20393;-77
2022/12/17 18:01:28;;;;;;;79.22;30.33;;;;;;;-3.46;100.00;102763.09;5134125;27;20045;-77
2022/12/17 18:03:58;;;;;;;89.28;30.27;;;;;;;-3.48;100.00;102767.28;5151162;27;20124;-76
2022/12/17 18:06:25;;;;;;;83.07;31.02;;;;;;;-3.53;100.00;102763.50;5135159;27;20038;-76
2022/12/17 18:08:50;;;;;;;85.43;29.27;;;;;;;-3.55;100.00;102761.59;5116943;27;20029;-77
2022/12/17 18:11:18;;;;;;;79.00;30.85;;;;;;;-3.57;100.00;102771.84;5126558;27;20034;-76
2022/12/17 18:13:56;;;;;;;68.10;27.13;;;;;;;-3.59;100.00;102765.66;5150010;27;20075;-76
2022/12/17 18:16:31;;;;;;;76.10;30.17;;;;;;;-3.59;100.00;102767.34;5101207;27;20088;-76
2022/12/17 18:19:05;;;;;;;70.53;26.52;;;;;;;-3.63;100.00;102771.44;5139318;27;20031;-76
2022/12/17 18:21:32;;;;;;;85.90;32.65;;;;;;;-3.62;100.00;102782.69;5122899;27;20023;-76
2022/12/17 18:24:00;;;;;;;80.05;28.83;;;;;;;-3.66;100.00;102779.00;5151368;27;20024;-76
2022/12/17 18:26:28;;;;;;;76.88;29.20;;;;;;;-3.67;100.00;102780.69;5130454;27;20030;-76
2022/12/17 18:28:54;;;;;;;79.35;29.70;;;;;;;-3.71;100.00;102777.78;5153947;27;20047;-76
2022/12/17 18:31:23;;;;;;;67.90;25.27;;;;;;;-3.72;100.00;102779.47;5154389;27;20106;-76
2022/12/17 18:33:55;;;;;;;80.72;29.50;;;;;;;-3.72;100.00;102776.00;5135641;27;20023;-76
2022/12/17 18:36:25;;;;;;;81.82;27.80;;;;;;;-3.77;100.00;102779.97;5124927;27;20030;-76
2022/12/17 18:38:58;;;;;;;79.05;29.85;;;;;;;-3.81;100.00;102770.19;5150136;27;20022;-76
2022/12/17 18:44:09;;;;;;;84.88;29.83;;;;;;;-3.80;100.00;102766.84;5112739;27;20037;-75
2022/12/17 18:46:34;;;;;;;75.60;29.90;;;;;;;-3.84;100.00;102760.53;5151644;27;20055;-76
2022/12/17 18:49:03;;;;;;;81.72;31.52;;;;;;;-3.83;100.00;102767.53;5127019;27;20075;-76
2022/12/17 18:51:29;;;;;;;95.25;31.80;;;;;;;-3.81;100.00;102770.19;5140628;27;20031;-76
2022/12/17 18:53:57;;;;;;;79.00;29.55;;;;;;;-3.85;100.00;102771.69;5128248;27;20023;-76
2022/12/17 18:56:22;;;;;;;78.35;29.20;;;;;;;-3.84;100.00;102765.72;5115214;27;20035;-76
2022/12/17 18:58:51;;;;;;;85.43;27.00;;;;;;;-3.89;100.00;102759.31;5139674;27;20394;-76
2022/12/17 19:01:27;;;;;;;84.38;30.42;;;;;;;-3.91;100.00;102767.00;5151042;27;20043;-76
2022/12/17 19:03:54;;;;;;;80.55;28.85;;;;;;;-3.89;100.00;102774.84;5148761;27;20070;-75
2022/12/17 19:06:21;;;;;;;75.93;27.67;;;;;;;-3.91;100.00;102768.69;5149434;27;20058;-76
2022/12/17 19:08:47;;;;;;;67.93;26.52;;;;;;;-3.93;100.00;102776.34;5117119;27;20039;-76
2022/12/17 19:11:16;;;;;;;60.50;23.13;;;;;;;-3.97;100.00;102776.03;5152589;27;20015;-76
2022/12/17 19:13:42;;;;;;;57.08;22.92;;;;;;;-4.02;100.00;102780.00;5131889;27;20039;-75
2022/12/17 19:16:16;;;;;;;65.60;25.08;;;;;;;-4.06;100.00;102780.56;5134052;27;20117;-75
2022/12/17 19:18:41;;;;;;;66.50;25.98;;;;;;;-4.07;100.00;102799.50;5151209;27;20035;-75
2022/12/17 19:21:10;;;;;;;71.35;28.23;;;;;;;-4.08;100.00;102790.81;5133356;27;20057;-76
2022/12/17 19:23:36;;;;;;;67.35;28.40;;;;;;;-4.07;100.00;102797.78;5151119;27;20023;-75
2022/12/17 19:26:18;;;;;;;68.65;27.83;;;;;;;-4.09;100.00;102799.38;5115810;27;20534;-76
2022/12/17 19:28:46;;;;;;;67.40;27.75;;;;;;;-4.12;100.00;102794.88;5143803;27;20115;-75
2022/12/17 19:31:13;;;;;;;75.13;29.27;;;;;;;-4.12;100.00;102801.75;5114221;27;20106;-76
2022/12/17 19:33:38;;;;;;;71.53;27.88;;;;;;;-4.12;100.00;102796.59;5127395;27;20019;-76
2022/12/17 19:36:07;;;;;;;92.22;28.20;;;;;;;-4.10;100.00;102797.59;5114867;27;20050;-76
2022/12/17 19:38:33;;;;;;;82.00;27.90;;;;;;;-4.14;100.00;102805.94;5133632;27;20015;-75
2022/12/17 19:41:10;;;;;;;58.25;23.67;;;;;;;-4.16;100.00;102804.91;5097470;28;20034;-75
2022/12/17 19:43:35;;;;;;;64.43;24.38;;;;;;;-4.16;100.00;102810.09;5121088;27;20074;-76
2022/12/17 19:46:01;;;;;;;73.25;29.55;;;;;;;-4.23;100.00;102805.28;5135136;27;20122;-76
2022/12/17 19:48:29;;;;;;;61.67;26.65;;;;;;;-4.24;100.00;102799.22;5135203;27;20122;-75
2022/12/17 19:50:56;;;;;;;70.68;25.58;;;;;;;-4.25;100.00;102804.25;5126816;27;20512;-76
2022/12/17 19:53:25;;;;;;;65.25;26.58;;;;;;;-4.28;100.00;102801.47;5151715;27;20046;-75
2022/12/17 19:55:55;;;;;;;65.68;26.58;;;;;;;-4.32;100.00;102811.63;5097797;28;20035;-76
2022/12/17 19:58:24;;;;;;;60.22;25.85;;;;;;;-4.35;100.00;102816.56;5130556;27;20068;-76
2022/12/17 20:00:51;;;;;;;63.38;25.33;;;;;;;-4.34;100.00;102814.88;5114711;28;20073;-75
2022/12/17 20:03:17;;;;;;;64.93;27.13;;;;;;;-4.33;100.00;102819.25;5147515;27;20031;-75
2022/12/17 20:05:45;;;;;;;75.07;29.35;;;;;;;-4.32;100.00;102819.38;5135096;27;20033;-75
2022/12/17 20:08:11;;;;;;;70.10;27.38;;;;;;;-4.24;100.00;102827.66;5134049;27;20049;-81
2022/12/17 20:10:37;;;;;;;63.10;27.58;;;;;;;-4.21;100.00;102829.56;5153105;27;20019;-81
2022/12/17 20:13:03;;;;;;;73.53;28.55;;;;;;;-4.19;100.00;102833.16;5134654;27;20023;-81
2022/12/17 20:15:29;;;;;;;39.25;15.75;;;;;;;-4.16;100.00;102833.38;5150492;27;20470;-81
2022/12/17 20:17:54;;;;;;;56.97;24.20;;;;;;;-4.23;100.00;102832.03;5149021;27;20079;-81
2022/12/17 20:20:20;;;;;;;82.72;27.08;;;;;;;-4.28;100.00;102838.56;5149911;27;20486;-81
2022/12/17 20:22:45;;;;;;;65.82;24.45;;;;;;;-4.29;100.00;102843.66;5129153;27;20062;-81
2022/12/17 20:25:11;;;;;;;64.38;22.63;;;;;;;-4.28;100.00;102853.22;5150807;27;20042;-81
2022/12/17 20:27:38;;;;;;;62.17;25.92;;;;;;;-4.36;100.00;102843.22;5134541;27;20110;-81
2022/12/17 20:30:04;;;;;;;69.60;26.15;;;;;;;-4.40;100.00;102836.03;5127108;27;20118;-81
2022/12/17 20:32:29;;;;;;;50.38;23.05;;;;;;;-4.37;100.00;102835.38;5152859;27;20521;-81
2022/12/17 20:34:58;;;;;;;86.00;24.98;;;;;;;-4.39;100.00;102834.34;5131481;27;20052;-80
2022/12/17 20:37:23;;;;;;;56.50;23.88;;;;;;;-4.39;100.00;102842.13;5135967;27;20038;-81
2022/12/17 20:39:49;;;;;;;71.93;24.25;;;;;;;-4.38;100.00;102833.56;5134615;27;20045;-80
2022/12/17 20:42:16;;;;;;;67.13;25.85;;;;;;;-4.37;100.00;102825.91;5132957;27;20035;-81
2022/12/17 20:44:42;;;;;;;67.93;29.02;;;;;;;-4.34;100.00;102835.56;5139657;27;20182;-81
2022/12/17 20:47:07;;;;;;;56.83;24.65;;;;;;;-4.32;100.00;102829.72;5130593;27;20421;-81
2022/12/17 20:49:33;;;;;;;59.83;25.45;;;;;;;-4.34;100.00;102822.66;5114928;27;20143;-81
2022/12/17 20:51:58;;;;;;;54.72;23.33;;;;;;;-4.36;100.00;102821.63;5147587;27;20027;-81
2022/12/17 20:54:24;;;;;;;89.00;42.35;;;;;;;-4.36;100.00;102825.09;5137277;27;20034;-80
2022/12/17 20:56:49;;;;;;;54.28;24.88;;;;;;;-4.37;100.00;102817.25;5132120;27;20039;-80
2022/12/17 20:59:17;;;;;;;52.92;23.65;;;;;;;-4.41;100.00;102808.38;5150899;27;20505;-81
2022/12/17 21:01:43;;;;;;;51.60;22.80;;;;;;;-4.45;100.00;102814.13;5134242;27;20070;-81
2022/12/17 21:04:11;;;;;;;57.15;24.90;;;;;;;-4.48;100.00;102810.41;5117167;27;20041;-81
2022/12/17 21:06:42;;;;;;;60.75;25.20;;;;;;;-4.46;100.00;102821.78;5148747;27;20066;-80
2022/12/17 21:09:07;;;;;;;60.70;25.10;;;;;;;-4.45;100.00;102819.31;5155968;27;20478;-80
2022/12/17 21:11:35;;;;;;;62.58;27.20;;;;;;;-4.47;100.00;102820.88;5137677;27;20019;-80
2022/12/17 21:14:04;;;;;;;64.53;27.27;;;;;;;-4.47;100.00;102815.72;5150780;27;20095;-81
2022/12/17 21:16:30;;;;;;;69.68;23.90;;;;;;;-4.44;100.00;102820.19;5149979;27;20045;-80
2022/12/17 21:18:57;;;;;;;58.70;24.58;;;;;;;-4.47;100.00;102815.72;5154195;27;20549;-80
2022/12/17 21:21:27;;;;;;;54.00;22.00;;;;;;;-4.48;100.00;102821.66;5154860;27;20038;-80
2022/12/17 21:23:53;;;;;;;53.22;22.63;;;;;;;-4.50;100.00;102819.75;5154569;27;20018;-80
2022/12/17 21:26:25;;;;;;;53.97;24.40;;;;;;;-4.55;100.00;102824.59;5137180;27;20561;-80
2022/12/17 21:28:53;;;;;;;63.38;23.65;;;;;;;-4.55;100.00;102832.34;5133239;27;20106;-80
2022/12/17 21:31:21;;;;;;;56.35;22.42;;;;;;;-4.64;100.00;102827.44;5115200;27;20027;-80
2022/12/17 21:33:48;;;;;;;53.53;21.10;;;;;;;-4.64;100.00;102837.78;5151911;27;20035;-80
2022/12/17 21:36:15;;;;;;;57.90;21.45;;;;;;;-4.67;100.00;102837.56;5149294;27;20047;-80
2022/12/17 21:38:41;;;;;;;54.50;22.67;;;;;;;-4.63;100.00;102841.25;5146599;27;20023;-76
2022/12/17 21:41:10;;;;;;;56.97;25.20;;;;;;;-4.64;100.00;102829.13;5128643;27;20416;-75
2022/12/17 21:43:36;;;;;;;58.90;24.10;;;;;;;-4.62;100.00;102836.19;5147445;27;20091;-75
2022/12/17 21:46:03;;;;;;;56.70;24.58;;;;;;;-4.65;100.00;102836.00;5147500;27;20051;-75
2022/12/17 21:48:28;;;;;;;60.65;24.65;;;;;;;-4.67;100.00;102834.97;5134943;27;20462;-75
2022/12/17 21:50:54;;;;;;;55.03;24.48;;;;;;;-4.69;100.00;102839.13;5133518;27;20042;-75
2022/12/17 21:53:20;;;;;;;51.38;23.70;;;;;;;-4.68;100.00;102840.03;5133563;27;20027;-75
2022/12/17 21:55:47;;;;;;;59.97;26.73;;;;;;;-4.71;100.00;102848.47;5147356;27;20486;-75
2022/12/17 21:58:14;;;;;;;56.30;24.42;;;;;;;-4.70;100.00;102852.81;5129163;27;20466;-75
2022/12/17 22:00:40;;;;;;;65.63;26.00;;;;;;;-4.69;100.00;102857.22;5132912;27;20054;-75
2022/12/17 22:03:06;;;;;;;59.28;26.75;;;;;;;-4.71;100.00;102850.16;5145817;27;20031;-75
2022/12/17 22:05:34;;;;;;;64.10;28.83;;;;;;;-4.70;100.00;102862.28;5143745;27;20046;-75
2022/12/17 22:07:59;;;;;;;73.32;27.42;;;;;;;-4.73;100.00;102859.47;5135356;27;20035;-75
2022/12/17 22:10:25;;;;;;;61.22;25.05;;;;;;;-4.71;100.00;102871.72;5116364;27;20082;-75
2022/12/17 22:15:37;;;;;;;60.33;25.10;;;;;;;-4.76;100.00;102876.56;5138201;27;20526;-75
2022/12/17 22:18:03;;;;;;;62.72;27.80;;;;;;;-4.78;100.00;102874.66;5134084;27;20027;-75
2022/12/17 22:20:28;;;;;;;56.17;25.42;;;;;;;-4.80;100.00;102876.22;5115729;27;20146;-75
2022/12/17 22:22:54;;;;;;;63.88;27.00;;;;;;;-4.81;100.00;102885.66;5138667;27;20027;-75
2022/12/17 22:25:19;;;;;;;72.47;27.63;;;;;;;-4.84;100.00;102882.84;5112638;27;20157;-75
2022/12/17 22:27:44;;;;;;;61.70;27.40;;;;;;;-4.84;100.00;102876.78;5134503;27;20040;-75
2022/12/17 22:32:58;;;;;;;67.88;28.33;;;;;;;-4.91;100.00;102878.03;5135074;27;20046;-75
2022/12/17 22:35:24;;;;;;;60.60;26.63;;;;;;;-4.97;100.00;102878.47;5134133;27;20023;-75
2022/12/17 22:37:49;;;;;;;58.13;24.83;;;;;;;-5.01;100.00;102872.97;5118221;27;20418;-75
2022/12/17 22:40:15;;;;;;;57.88;25.45;;;;;;;-5.03;100.00;102870.25;5090768;27;20027;-75
2022/12/17 22:45:25;;;;;;;65.78;27.48;;;;;;;-5.06;100.00;102877.78;5137464;27;20026;-76
2022/12/17 22:47:50;;;;;;;60.70;24.92;;;;;;;-5.09;100.00;102877.56;5131032;27;20442;-75
2022/12/17 22:50:16;;;;;;;68.88;27.40;;;;;;;-5.11;100.00;102873.06;5084436;27;20027;-75
2022/12/17 22:52:41;;;;;;;67.63;26.92;;;;;;;-5.12;100.00;102879.91;5126708;27;20042;-75
2022/12/17 22:55:07;;;;;;;54.58;24.00;;;;;;;-5.14;100.00;102871.16;5118924;27;20042;-75
2022/12/17 22:57:32;;;;;;;63.58;25.77;;;;;;;-5.16;100.00;102870.16;5115743;27;20427;-75
2022/12/17 22:59:58;;;;;;;64.75;28.05;;;;;;;-5.19;100.00;102864.75;5133743;27;20199;-75
2022/12/17 23:02:23;;;;;;;57.45;25.58;;;;;;;-5.21;100.00;102862.06;5103852;27;20035;-75
2022/12/17 23:04:49;;;;;;;66.20;28.08;;;;;;;-5.24;100.00;102863.53;5133780;27;20114;-75
2022/12/17 23:07:14;;;;;;;71.53;28.17;;;;;;;-5.28;100.00;102866.66;5112740;27;20031;-75
2022/12/17 23:09:40;;;;;;;53.05;24.02;;;;;;;-5.33;100.00;102865.41;5124415;27;20027;-75
2022/12/17 23:14:49;;;;;;;55.33;25.30;;;;;;;-5.45;100.00;102862.78;5117959;27;20490;-75
2022/12/17 23:17:15;;;;;;;61.78;27.23;;;;;;;-5.46;100.00;102853.25;5135716;27;20040;-74
2022/12/17 23:19:40;;;;;;;57.75;23.23;;;;;;;-5.48;100.00;102847.06;5117336;27;20502;-75
2022/12/17 23:22:06;;;;;;;62.28;26.13;;;;;;;-5.54;100.00;102839.75;5134541;27;20068;-74
2022/12/17 23:24:31;;;;;;;52.35;23.50;;;;;;;-5.51;100.00;102849.44;5145210;27;20396;-75
2022/12/17 23:26:57;;;;;;;52.45;24.05;;;;;;;-5.54;100.00;102849.19;5117221;27;20062;-74
2022/12/17 23:29:22;;;;;;;54.42;24.17;;;;;;;-5.57;100.00;102862.75;5118484;27;20359;-75
2022/12/17 23:31:48;;;;;;;61.50;27.10;;;;;;;-5.60;99.99;102857.38;5140372;27;20031;-74
2022/12/17 23:34:13;;;;;;;60.58;24.83;;;;;;;-5.60;99.82;102851.31;5150476;27;20109;-75
2022/12/17 23:36:39;;;;;;;56.03;25.45;;;;;;;-5.63;100.00;102858.03;5146252;27;20390;-75
2022/12/17 23:39:05;;;;;;;62.33;25.55;;;;;;;-5.65;99.79;102849.25;5146486;27;20516;-75
2022/12/17 23:41:44;;;;;;;59.38;26.63;;;;;;;-5.68;99.57;102843.88;5149719;27;20070;-75
2022/12/17 23:44:09;;;;;;;58.80;26.67;;;;;;;-5.70;99.68;102852.28;5112010;27;20038;-75
2022/12/17 23:46:35;;;;;;;55.33;23.42;;;;;;;-5.72;99.82;102847.00;5129445;27;20089;-75
2022/12/17 23:49:04;;;;;;;58.78;23.70;;;;;;;-5.76;99.19;102844.06;5117255;27;20060;-74
2022/12/17 23:51:31;;;;;;;65.38;27.42;;;;;;;-5.79;99.37;102849.88;5134281;27;20070;-75
2022/12/17 23:53:58;;;;;;;63.72;25.67;;;;;;;-5.78;99.33;102858.56;5135178;27;20045;-74
2022/12/17 23:56:25;;;;;;;64.90;25.17;;;;;;;-5.85;98.99;102870.06;5153330;27;20082;-75
2022/12/17 23:59:00;;;;;;;65.88;26.95;;;;;;;-5.88;99.00;102873.31;5125348;27;20057;-74
